YKF weather

Waterloo Airport
Kitchener, Ontario, Canada

Public forecast

Using degrees Celsius for public forecast. Weather courtesy of forecast.io.

METAR (pilot weather report)

Retrieved 2019/03/21 01:00 UTC (1 hour ago):

CYKF 210100Z AUTO 19003KT 6SM -RA BR SCT009 OVC034 02/01 A3007 RMK SLP197

TAF (pilot weather forecast)

Retrieved 2019/03/20 20:42 UTC (5 hours ago):

TAF CYKF 201939Z 2020/2108 18010G20KT P6SM FEW040 SCT240 FM202100 20012KT P6SM FEW040 BKN100 FM210000 19006KT P6SM -RA SCT020 OVC060 FM210300 14008KT 5SM -RA BR BKN020 OVC040 FM210500 16008KT 4SM -RASN BR SCT007 OVC020 PROB30 2106/2108 OVC007 RMK FCST BASED ON AUTO OBS. NXT FCST BY 210200Z